WJA771 CYYC-KSEA
Flight info
| Callsign | WJA771 |
|---|---|
| Flight time | N/A |
| Altitude | 34000 |
| Route | DUMRA Q890 MEKPI DCT TWIGY DCT GEG GLASR3 |
| Aircraft | B38M/M-SDE1FGHILORVWXY/HB1 |
Departure
| Time | 2026-05-01 14:17 |
|---|---|
| Airport | Calgary International Airport (CYYC) |
Arrival
| Time | N/A |
|---|---|
| Airport | Seattle–Tacoma International Airport (KSEA) |
| Time | Latitude | Longitude | Altitude | Speed | Heading |
|---|---|---|---|---|---|
| 2026-05-01 13:59 | 51.12926 | -113.99858 | 3568 ft | 0 kts | 339° |
| 2026-05-01 14:09 | 51.12918 | -113.99852 | 3561 ft | 3 kts | 341° |
| 2026-05-01 14:09 | 51.12899 | -113.99844 | 3565 ft | 3 kts | 349° |
| 2026-05-01 14:10 | 51.12879 | -113.99840 | 3562 ft | 3 kts | 2° |
| 2026-05-01 14:10 | 51.12860 | -113.99845 | 3561 ft | 3 kts | 21° |
| 2026-05-01 14:10 | 51.12844 | -113.99860 | 3564 ft | 3 kts | 55° |
| 2026-05-01 14:10 | 51.12839 | -113.99880 | 3561 ft | 1 kts | 90° |
| 2026-05-01 14:11 | 51.12839 | -113.99882 | 3561 ft | 2 kts | 90° |
| 2026-05-01 14:12 | 51.12836 | -113.99871 | 3562 ft | 2 kts | 118° |
| 2026-05-01 14:13 | 51.12803 | -113.99858 | 3565 ft | 10 kts | 179° |
| 2026-05-01 14:13 | 51.12712 | -113.99798 | 3566 ft | 19 kts | 117° |
| 2026-05-01 14:13 | 51.12705 | -113.99556 | 3568 ft | 24 kts | 90° |
| 2026-05-01 14:13 | 51.12596 | -113.99433 | 3563 ft | 23 kts | 185° |
| 2026-05-01 14:14 | 51.12433 | -113.99444 | 3565 ft | 20 kts | 181° |
| 2026-05-01 14:14 | 51.12303 | -113.99444 | 3564 ft | 19 kts | 180° |
| 2026-05-01 14:14 | 51.12162 | -113.99445 | 3563 ft | 21 kts | 180° |
| 2026-05-01 14:14 | 51.12008 | -113.99445 | 3561 ft | 23 kts | 180° |
| 2026-05-01 14:15 | 51.11843 | -113.99446 | 3563 ft | 25 kts | 180° |
| 2026-05-01 14:15 | 51.11665 | -113.99446 | 3560 ft | 26 kts | 180° |
| 2026-05-01 14:15 | 51.11479 | -113.99446 | 3563 ft | 27 kts | 179° |
| 2026-05-01 14:15 | 51.11293 | -113.99446 | 3569 ft | 25 kts | 180° |
| 2026-05-01 14:16 | 51.11144 | -113.99413 | 3567 ft | 19 kts | 139° |
| 2026-05-01 14:16 | 51.11121 | -113.99213 | 3577 ft | 18 kts | 88° |
| 2026-05-01 14:16 | 51.11149 | -113.99058 | 3573 ft | 12 kts | 39° |
| 2026-05-01 14:16 | 51.11239 | -113.99036 | 3567 ft | 21 kts | 1° |
| 2026-05-01 14:17 | 51.11645 | -113.99035 | 3566 ft | 99 kts | 0° |
| 2026-05-01 14:17 | 51.12591 | -113.99035 | 3563 ft | 170 kts | 1° |
| 2026-05-01 14:17 | 51.13867 | -113.99033 | 4167 ft | 191 kts | 359° |
| 2026-05-01 14:17 | 51.15236 | -113.99045 | 5141 ft | 206 kts | 356° |
| 2026-05-01 14:18 | 51.16696 | -113.99023 | 6075 ft | 217 kts | 359° |
| 2026-05-01 14:18 | 51.18272 | -113.99066 | 6756 ft | 236 kts | 351° |
| 2026-05-01 14:18 | 51.19772 | -114.00239 | 7464 ft | 248 kts | 313° |
| 2026-05-01 14:18 | 51.20368 | -114.01824 | 8220 ft | 250 kts | 288° |
| 2026-05-01 14:19 | 51.20181 | -114.05461 | 9490 ft | 266 kts | 243° |
| 2026-05-01 14:19 | 51.18872 | -114.07643 | 10202 ft | 286 kts | 210° |
| 2026-05-01 14:19 | 51.16892 | -114.08459 | 10813 ft | 308 kts | 180° |
| 2026-05-01 14:19 | 51.16365 | -114.08421 | 10959 ft | 313 kts | 176° |
| 2026-05-01 14:20 | 51.14119 | -114.08303 | 11489 ft | 331 kts | 189° |
| 2026-05-01 14:20 | 51.09510 | -114.09996 | 13084 ft | 345 kts | 194° |
| 2026-05-01 14:20 | 51.07158 | -114.10811 | 14084 ft | 347 kts | 194° |
| 2026-05-01 14:21 | 51.04783 | -114.11612 | 14879 ft | 351 kts | 194° |
| 2026-05-01 14:21 | 51.02374 | -114.12408 | 15642 ft | 356 kts | 194° |
| 2026-05-01 14:21 | 50.99931 | -114.13206 | 16410 ft | 361 kts | 194° |
| 2026-05-01 14:22 | 50.94948 | -114.14817 | 17884 ft | 370 kts | 195° |
| 2026-05-01 14:22 | 50.92411 | -114.15634 | 18576 ft | 374 kts | 195° |
| 2026-05-01 14:22 | 50.89847 | -114.16456 | 19210 ft | 378 kts | 195° |
| 2026-05-01 14:22 | 50.87260 | -114.17284 | 19854 ft | 382 kts | 195° |
| 2026-05-01 14:23 | 50.84678 | -114.18110 | 20481 ft | 385 kts | 195° |
| 2026-05-01 14:23 | 50.82037 | -114.18951 | 21096 ft | 390 kts | 195° |
| 2026-05-01 14:23 | 50.79366 | -114.19801 | 21708 ft | 393 kts | 195° |
| 2026-05-01 14:23 | 50.76669 | -114.20659 | 22307 ft | 397 kts | 195° |
| 2026-05-01 14:24 | 50.73950 | -114.21522 | 22910 ft | 401 kts | 195° |
| 2026-05-01 14:24 | 50.71204 | -114.22391 | 23492 ft | 404 kts | 195° |
| 2026-05-01 14:24 | 50.68433 | -114.23266 | 24011 ft | 408 kts | 195° |
| 2026-05-01 14:24 | 50.65636 | -114.24148 | 24484 ft | 411 kts | 195° |
| 2026-05-01 14:25 | 50.62901 | -114.25400 | 24950 ft | 410 kts | 203° |
| 2026-05-01 14:25 | 50.60191 | -114.26868 | 25423 ft | 414 kts | 201° |
| 2026-05-01 14:25 | 50.57447 | -114.28299 | 25876 ft | 417 kts | 201° |
| 2026-05-01 14:25 | 50.54679 | -114.29717 | 26351 ft | 420 kts | 201° |
| 2026-05-01 14:26 | 50.51886 | -114.31133 | 26798 ft | 423 kts | 201° |
| 2026-05-01 14:26 | 50.46236 | -114.33977 | 27679 ft | 429 kts | 200° |
| 2026-05-01 14:26 | 50.43381 | -114.35410 | 28109 ft | 432 kts | 200° |
| 2026-05-01 14:27 | 50.40512 | -114.36861 | 28533 ft | 435 kts | 201° |
| 2026-05-01 14:27 | 50.37627 | -114.38344 | 28947 ft | 438 kts | 201° |
| 2026-05-01 14:27 | 50.34725 | -114.39829 | 29352 ft | 441 kts | 201° |
| 2026-05-01 14:28 | 50.28855 | -114.42826 | 30146 ft | 446 kts | 201° |
| 2026-05-01 14:28 | 50.25918 | -114.44422 | 30460 ft | 447 kts | 207° |
| 2026-05-01 14:28 | 50.23294 | -114.46963 | 30789 ft | 444 kts | 220° |
| 2026-05-01 14:28 | 50.20847 | -114.49909 | 31101 ft | 447 kts | 219° |
| 2026-05-01 14:29 | 50.18367 | -114.52866 | 31430 ft | 449 kts | 219° |
| 2026-05-01 14:29 | 50.15894 | -114.55839 | 31872 ft | 449 kts | 220° |
| 2026-05-01 14:30 | 50.08503 | -114.64745 | 33218 ft | 447 kts | 219° |
| 2026-05-01 14:30 | 50.06040 | -114.67706 | 33686 ft | 446 kts | 219° |
| 2026-05-01 14:30 | 50.03586 | -114.70652 | 34114 ft | 446 kts | 219° |
| 2026-05-01 14:31 | 49.98668 | -114.76545 | 34223 ft | 444 kts | 219° |
| 2026-05-01 14:31 | 49.93779 | -114.82389 | 34224 ft | 443 kts | 219° |
| 2026-05-01 14:32 | 49.88888 | -114.88219 | 34229 ft | 443 kts | 219° |
| 2026-05-01 14:32 | 49.83998 | -114.94033 | 34230 ft | 443 kts | 219° |
| 2026-05-01 14:33 | 49.79100 | -114.99841 | 34226 ft | 443 kts | 219° |
| 2026-05-01 14:33 | 49.74197 | -115.05639 | 34227 ft | 444 kts | 219° |
| 2026-05-01 14:34 | 49.69293 | -115.11424 | 34220 ft | 444 kts | 219° |
| 2026-05-01 14:34 | 49.64377 | -115.17208 | 34215 ft | 444 kts | 219° |
| 2026-05-01 14:35 | 49.59495 | -115.22937 | 34210 ft | 444 kts | 219° |
| 2026-05-01 14:35 | 49.54573 | -115.28698 | 34205 ft | 444 kts | 219° |
| 2026-05-01 14:36 | 49.49649 | -115.34446 | 34193 ft | 444 kts | 219° |
| 2026-05-01 14:36 | 49.44720 | -115.40185 | 34195 ft | 445 kts | 219° |
| 2026-05-01 14:37 | 49.39786 | -115.45915 | 34187 ft | 445 kts | 219° |
| 2026-05-01 14:37 | 49.34843 | -115.51642 | 34179 ft | 445 kts | 219° |
| 2026-05-01 14:38 | 49.29893 | -115.57361 | 34163 ft | 446 kts | 219° |
| 2026-05-01 14:38 | 49.24938 | -115.63071 | 34156 ft | 446 kts | 218° |
| 2026-05-01 14:39 | 49.19978 | -115.68772 | 34141 ft | 446 kts | 218° |
| 2026-05-01 14:39 | 49.15011 | -115.74468 | 34133 ft | 446 kts | 218° |
| 2026-05-01 14:40 | 49.10044 | -115.80147 | 34145 ft | 446 kts | 218° |
| 2026-05-01 14:40 | 49.05066 | -115.85828 | 34136 ft | 447 kts | 218° |
| 2026-05-01 14:41 | 49.00079 | -115.91505 | 34131 ft | 447 kts | 218° |
| 2026-05-01 14:41 | 48.95148 | -115.97285 | 34141 ft | 447 kts | 221° |
| 2026-05-01 14:42 | 48.90334 | -116.03273 | 34130 ft | 447 kts | 220° |
| 2026-05-01 14:42 | 48.85499 | -116.09231 | 34134 ft | 448 kts | 220° |
| 2026-05-01 14:43 | 48.80656 | -116.15179 | 34133 ft | 448 kts | 220° |
| 2026-05-01 14:43 | 48.75808 | -116.21118 | 34129 ft | 448 kts | 220° |
| 2026-05-01 14:44 | 48.70957 | -116.27046 | 34123 ft | 448 kts | 220° |
| 2026-05-01 14:44 | 48.63676 | -116.35914 | 34126 ft | 448 kts | 220° |
| 2026-05-01 14:45 | 48.56383 | -116.44763 | 34151 ft | 448 kts | 220° |
| 2026-05-01 14:46 | 48.51546 | -116.50614 | 34170 ft | 449 kts | 220° |
| 2026-05-01 14:46 | 48.44204 | -116.59466 | 34182 ft | 449 kts | 220° |
| 2026-05-01 14:47 | 48.39359 | -116.65289 | 34190 ft | 449 kts | 220° |
| 2026-05-01 14:48 | 48.32036 | -116.74061 | 34187 ft | 449 kts | 220° |
| 2026-05-01 14:48 | 48.24702 | -116.82816 | 34182 ft | 449 kts | 220° |
| 2026-05-01 14:49 | 48.15711 | -116.93503 | 34165 ft | 449 kts | 219° |
| 2026-05-01 14:50 | 48.05913 | -117.05093 | 34151 ft | 449 kts | 219° |
| 2026-05-01 14:51 | 47.98588 | -117.13718 | 34158 ft | 449 kts | 219° |
| 2026-05-01 14:52 | 47.91224 | -117.22360 | 34155 ft | 449 kts | 219° |
| 2026-05-01 14:53 | 47.83849 | -117.30980 | 34155 ft | 449 kts | 219° |
| 2026-05-01 14:53 | 47.78929 | -117.36714 | 34161 ft | 449 kts | 219° |
| 2026-05-01 14:54 | 47.74011 | -117.42433 | 34165 ft | 449 kts | 219° |
| 2026-05-01 14:54 | 47.69082 | -117.48151 | 34146 ft | 449 kts | 219° |
| 2026-05-01 14:55 | 47.64152 | -117.53856 | 34144 ft | 449 kts | 219° |
| 2026-05-01 14:55 | 47.59625 | -117.60118 | 34122 ft | 444 kts | 238° |
| 2026-05-01 14:55 | 47.58268 | -117.64203 | 34143 ft | 441 kts | 252° |
| 2026-05-01 14:56 | 47.57643 | -117.68633 | 34132 ft | 440 kts | 267° |
| 2026-05-01 14:56 | 47.58047 | -117.77655 | 34141 ft | 440 kts | 276° |
| 2026-05-01 14:57 | 47.58814 | -117.86641 | 34129 ft | 439 kts | 277° |
| 2026-05-01 14:57 | 47.60064 | -118.00080 | 34120 ft | 439 kts | 278° |
| 2026-05-01 14:58 | 47.60899 | -118.09025 | 34107 ft | 439 kts | 278° |
| 2026-05-01 14:58 | 47.61728 | -118.17980 | 34099 ft | 438 kts | 278° |
| 2026-05-01 14:59 | 47.62549 | -118.26932 | 34102 ft | 438 kts | 278° |
| 2026-05-01 14:59 | 47.63363 | -118.35884 | 34098 ft | 438 kts | 278° |
| 2026-05-01 15:00 | 47.64571 | -118.49307 | 34096 ft | 438 kts | 278° |
| 2026-05-01 15:01 | 47.65367 | -118.58251 | 34103 ft | 437 kts | 278° |
| 2026-05-01 15:01 | 47.66155 | -118.67194 | 34101 ft | 437 kts | 277° |
| 2026-05-01 15:02 | 47.66931 | -118.76073 | 34096 ft | 437 kts | 277° |
| 2026-05-01 15:02 | 47.67705 | -118.85020 | 34096 ft | 437 kts | 277° |
| 2026-05-01 15:03 | 47.68472 | -118.93973 | 34107 ft | 437 kts | 277° |
| 2026-05-01 15:03 | 47.69234 | -119.02939 | 34101 ft | 437 kts | 277° |
| 2026-05-01 15:04 | 47.69988 | -119.11901 | 34098 ft | 437 kts | 277° |
| 2026-05-01 15:04 | 47.70734 | -119.20851 | 34106 ft | 437 kts | 277° |
| 2026-05-01 15:05 | 47.71474 | -119.29817 | 34101 ft | 437 kts | 277° |
| 2026-05-01 15:05 | 47.72208 | -119.38777 | 34104 ft | 437 kts | 277° |
| 2026-05-01 15:06 | 47.72935 | -119.47745 | 34099 ft | 437 kts | 276° |
| 2026-05-01 15:06 | 47.73651 | -119.56717 | 34094 ft | 437 kts | 276° |
| 2026-05-01 15:07 | 47.74362 | -119.65695 | 34100 ft | 437 kts | 276° |
| 2026-05-01 15:07 | 47.75067 | -119.74671 | 34105 ft | 437 kts | 276° |
| 2026-05-01 15:08 | 47.75765 | -119.83656 | 34105 ft | 437 kts | 276° |
| 2026-05-01 15:08 | 47.76455 | -119.92634 | 34103 ft | 437 kts | 276° |
| 2026-05-01 15:09 | 47.77139 | -120.01620 | 34105 ft | 437 kts | 276° |
| 2026-05-01 15:09 | 47.77812 | -120.10541 | 34101 ft | 437 kts | 276° |
| 2026-05-01 15:10 | 47.78480 | -120.19518 | 34106 ft | 437 kts | 276° |
| 2026-05-01 15:10 | 47.79469 | -120.32993 | 34101 ft | 437 kts | 275° |
| 2026-05-01 15:11 | 47.80442 | -120.46452 | 33917 ft | 432 kts | 275° |
| 2026-05-01 15:11 | 47.80759 | -120.50884 | 33089 ft | 432 kts | 275° |
| 2026-05-01 15:12 | 47.81076 | -120.55350 | 32176 ft | 435 kts | 275° |
| 2026-05-01 15:12 | 47.81708 | -120.64306 | 30624 ft | 436 kts | 275° |
| 2026-05-01 15:12 | 47.82022 | -120.68802 | 29711 ft | 438 kts | 275° |
| 2026-05-01 15:13 | 47.82952 | -120.82263 | 27405 ft | 436 kts | 274° |
| 2026-05-01 15:14 | 47.83566 | -120.91284 | 26183 ft | 438 kts | 274° |
| 2026-05-01 15:14 | 47.83869 | -120.95779 | 25543 ft | 436 kts | 274° |
| 2026-05-01 15:14 | 47.84463 | -121.04661 | 24266 ft | 428 kts | 274° |
| 2026-05-01 15:15 | 47.85042 | -121.13426 | 22886 ft | 423 kts | 274° |
| 2026-05-01 15:15 | 47.85609 | -121.22085 | 21506 ft | 418 kts | 273° |
| 2026-05-01 15:16 | 47.86155 | -121.30556 | 20326 ft | 410 kts | 273° |
| 2026-05-01 15:16 | 47.86690 | -121.38938 | 19141 ft | 405 kts | 273° |
| 2026-05-01 15:17 | 47.87212 | -121.47184 | 18072 ft | 391 kts | 273° |
| 2026-05-01 15:18 | 47.87913 | -121.58442 | 17324 ft | 336 kts | 272° |
| 2026-05-01 15:18 | 47.88123 | -121.61856 | 17137 ft | 326 kts | 273° |
| 2026-05-01 15:19 | 47.87163 | -121.71415 | 16198 ft | 322 kts | 233° |
| 2026-05-01 15:19 | 47.84078 | -121.76302 | 15522 ft | 324 kts | 224° |
| 2026-05-01 15:19 | 47.82457 | -121.78621 | 15170 ft | 323 kts | 223° |
| 2026-05-01 15:20 | 47.79208 | -121.83126 | 14482 ft | 316 kts | 222° |
| 2026-05-01 15:20 | 47.77596 | -121.85327 | 14136 ft | 313 kts | 222° |
| 2026-05-01 15:20 | 47.75994 | -121.87502 | 13899 ft | 313 kts | 222° |
| 2026-05-01 15:21 | 47.74378 | -121.89688 | 13725 ft | 314 kts | 222° |
| 2026-05-01 15:21 | 47.72844 | -121.91758 | 13580 ft | 314 kts | 221° |
| 2026-05-01 15:21 | 47.71242 | -121.93917 | 13422 ft | 314 kts | 221° |
| 2026-05-01 15:21 | 47.69628 | -121.96090 | 13286 ft | 313 kts | 222° |
| 2026-05-01 15:22 | 47.66407 | -122.00421 | 12951 ft | 312 kts | 221° |
| 2026-05-01 15:22 | 47.64803 | -122.02577 | 12799 ft | 311 kts | 221° |
| 2026-05-01 15:22 | 47.63198 | -122.04729 | 12643 ft | 310 kts | 221° |
| 2026-05-01 15:23 | 47.61622 | -122.06842 | 12492 ft | 301 kts | 221° |
| 2026-05-01 15:23 | 47.60092 | -122.08893 | 12340 ft | 291 kts | 221° |
| 2026-05-01 15:23 | 47.58612 | -122.10874 | 12210 ft | 284 kts | 221° |
| 2026-05-01 15:23 | 47.57131 | -122.12820 | 12035 ft | 286 kts | 218° |
| 2026-05-01 15:24 | 47.55334 | -122.14118 | 11415 ft | 295 kts | 193° |
| 2026-05-01 15:24 | 47.53260 | -122.14314 | 10861 ft | 304 kts | 180° |
| 2026-05-01 15:24 | 47.51122 | -122.14207 | 10254 ft | 311 kts | 179° |
| 2026-05-01 15:24 | 47.48949 | -122.14091 | 9662 ft | 311 kts | 179° |
| 2026-05-01 15:25 | 47.46804 | -122.13977 | 9067 ft | 306 kts | 179° |
| 2026-05-01 15:25 | 47.44692 | -122.13866 | 8484 ft | 301 kts | 179° |
| 2026-05-01 15:25 | 47.42615 | -122.13753 | 7941 ft | 296 kts | 179° |
| 2026-05-01 15:25 | 47.40576 | -122.13645 | 7433 ft | 289 kts | 178° |
| 2026-05-01 15:26 | 47.38598 | -122.13542 | 7092 ft | 279 kts | 178° |
| 2026-05-01 15:26 | 47.36690 | -122.13437 | 6787 ft | 270 kts | 178° |
| 2026-05-01 15:26 | 47.34840 | -122.13338 | 6483 ft | 262 kts | 178° |
| 2026-05-01 15:26 | 47.33067 | -122.13239 | 6203 ft | 249 kts | 178° |
| 2026-05-01 15:27 | 47.31387 | -122.13152 | 5893 ft | 241 kts | 178° |
| 2026-05-01 15:27 | 47.29732 | -122.13063 | 5598 ft | 237 kts | 178° |
| 2026-05-01 15:27 | 47.28083 | -122.12975 | 5264 ft | 237 kts | 178° |
| 2026-05-01 15:28 | 47.25031 | -122.14331 | 4568 ft | 239 kts | 226° |
| 2026-05-01 15:28 | 47.24252 | -122.16452 | 4310 ft | 235 kts | 256° |
| 2026-05-01 15:28 | 47.24065 | -122.18782 | 4132 ft | 224 kts | 265° |
| 2026-05-01 15:29 | 47.24443 | -122.22954 | 4033 ft | 196 kts | 289° |
| 2026-05-01 15:29 | 47.24916 | -122.24832 | 4032 ft | 196 kts | 290° |
| 2026-05-01 15:29 | 47.25876 | -122.28575 | 3740 ft | 194 kts | 290° |
| 2026-05-01 15:30 | 47.27102 | -122.31266 | 3429 ft | 193 kts | 330° |
| 2026-05-01 15:31 | 47.32626 | -122.31905 | 2652 ft | 178 kts | 1° |
| 2026-05-01 15:31 | 47.34981 | -122.31881 | 2205 ft | 155 kts | 1° |
| 2026-05-01 15:32 | 47.37075 | -122.31863 | 1821 ft | 148 kts | 1° |
| 2026-05-01 15:32 | 47.39125 | -122.31848 | 1403 ft | 147 kts | 0° |
| 2026-05-01 15:33 | 47.42151 | -122.31822 | 794 ft | 143 kts | 1° |
| 2026-05-01 15:34 | 47.45025 | -122.31800 | 386 ft | 101 kts | 0° |